sensor_id;sensor_type;location;lat;lon;timestamp;P1;durP1;ratioP1;P2;durP2;ratioP2
4674;SDS011;2351;50.812;12.872;2023-05-10T00:01:29;4.37;;;2.70;;
4674;SDS011;2351;50.812;12.872;2023-05-10T00:04:01;3.93;;;3.00;;
4674;SDS011;2351;50.812;12.872;2023-05-10T00:06:32;5.30;;;3.20;;
4674;SDS011;2351;50.812;12.872;2023-05-10T00:09:05;5.33;;;3.33;;
4674;SDS011;2351;50.812;12.872;2023-05-10T00:11:37;12.23;;;3.13;;
4674;SDS011;2351;50.812;12.872;2023-05-10T00:14:09;7.03;;;3.27;;
4674;SDS011;2351;50.812;12.872;2023-05-10T00:16:40;9.73;;;2.70;;
4674;SDS011;2351;50.812;12.872;2023-05-10T00:19:12;3.43;;;2.40;;
4674;SDS011;2351;50.812;12.872;2023-05-10T00:21:44;3.00;;;2.70;;
4674;SDS011;2351;50.812;12.872;2023-05-10T00:24:17;13.40;;;3.40;;
4674;SDS011;2351;50.812;12.872;2023-05-10T00:26:49;3.30;;;2.57;;
4674;SDS011;2351;50.812;12.872;2023-05-10T00:29:20;4.67;;;3.20;;
4674;SDS011;2351;50.812;12.872;2023-05-10T00:31:52;5.80;;;3.13;;
4674;SDS011;2351;50.812;12.872;2023-05-10T00:34:23;4.30;;;3.20;;
4674;SDS011;2351;50.812;12.872;2023-05-10T00:36:55;3.33;;;3.03;;
4674;SDS011;2351;50.812;12.872;2023-05-10T00:39:28;4.43;;;3.20;;
4674;SDS011;2351;50.812;12.872;2023-05-10T00:42:00;3.77;;;2.83;;
4674;SDS011;2351;50.812;12.872;2023-05-10T00:44:32;2.80;;;2.43;;
4674;SDS011;2351;50.812;12.872;2023-05-10T00:47:03;4.63;;;2.90;;
4674;SDS011;2351;50.812;12.872;2023-05-10T00:49:35;3.33;;;3.03;;
4674;SDS011;2351;50.812;12.872;2023-05-10T00:52:07;3.40;;;2.77;;
4674;SDS011;2351;50.812;12.872;2023-05-10T00:54:41;2.70;;;2.37;;
4674;SDS011;2351;50.812;12.872;2023-05-10T00:57:13;3.50;;;3.13;;
4674;SDS011;2351;50.812;12.872;2023-05-10T00:59:44;8.20;;;3.90;;
4674;SDS011;2351;50.812;12.872;2023-05-10T01:02:17;7.47;;;3.40;;
4674;SDS011;2351;50.812;12.872;2023-05-10T01:04:48;2.90;;;2.40;;
4674;SDS011;2351;50.812;12.872;2023-05-10T01:07:21;3.93;;;3.53;;
4674;SDS011;2351;50.812;12.872;2023-05-10T01:09:55;2.83;;;2.43;;
4674;SDS011;2351;50.812;12.872;2023-05-10T01:12:27;3.50;;;3.00;;
4674;SDS011;2351;50.812;12.872;2023-05-10T01:14:59;4.10;;;2.87;;
4674;SDS011;2351;50.812;12.872;2023-05-10T01:17:32;4.37;;;2.77;;
4674;SDS011;2351;50.812;12.872;2023-05-10T01:20:04;4.30;;;3.50;;
4674;SDS011;2351;50.812;12.872;2023-05-10T01:32:11;4.40;;;3.30;;
4674;SDS011;2351;50.812;12.872;2023-05-10T01:34:54;6.03;;;3.63;;
4674;SDS011;2351;50.812;12.872;2023-05-10T01:37:36;4.23;;;3.17;;
4674;SDS011;2351;50.812;12.872;2023-05-10T01:40:14;5.67;;;2.90;;
4674;SDS011;2351;50.812;12.872;2023-05-10T01:42:53;4.53;;;3.13;;
4674;SDS011;2351;50.812;12.872;2023-05-10T01:45:31;4.23;;;3.03;;
4674;SDS011;2351;50.812;12.872;2023-05-10T01:48:10;4.20;;;3.10;;
4674;SDS011;2351;50.812;12.872;2023-05-10T01:50:43;7.07;;;3.40;;
4674;SDS011;2351;50.812;12.872;2023-05-10T01:53:18;6.17;;;3.40;;
4674;SDS011;2351;50.812;12.872;2023-05-10T01:55:52;5.50;;;3.67;;
4674;SDS011;2351;50.812;12.872;2023-05-10T01:58:27;4.77;;;3.10;;
4674;SDS011;2351;50.812;12.872;2023-05-10T02:01:02;4.43;;;3.20;;
4674;SDS011;2351;50.812;12.872;2023-05-10T02:03:37;6.33;;;3.47;;
4674;SDS011;2351;50.812;12.872;2023-05-10T02:06:11;6.10;;;2.93;;
4674;SDS011;2351;50.812;12.872;2023-05-10T02:08:46;6.00;;;3.40;;
4674;SDS011;2351;50.812;12.872;2023-05-10T02:11:20;5.03;;;3.60;;
4674;SDS011;2351;50.812;12.872;2023-05-10T02:13:53;3.63;;;2.97;;
4674;SDS011;2351;50.812;12.872;2023-05-10T02:16:26;4.13;;;3.20;;
4674;SDS011;2351;50.812;12.872;2023-05-10T02:19:02;7.30;;;3.90;;
4674;SDS011;2351;50.812;12.872;2023-05-10T02:21:35;4.53;;;2.90;;
4674;SDS011;2351;50.812;12.872;2023-05-10T02:24:08;4.80;;;3.70;;
4674;SDS011;2351;50.812;12.872;2023-05-10T02:26:42;4.33;;;3.60;;
4674;SDS011;2351;50.812;12.872;2023-05-10T02:29:15;4.87;;;3.20;;
4674;SDS011;2351;50.812;12.872;2023-05-10T02:31:49;4.03;;;3.00;;
4674;SDS011;2351;50.812;12.872;2023-05-10T02:34:25;4.80;;;3.20;;
4674;SDS011;2351;50.812;12.872;2023-05-10T02:36:58;4.93;;;3.30;;
4674;SDS011;2351;50.812;12.872;2023-05-10T02:39:32;7.90;;;3.47;;
4674;SDS011;2351;50.812;12.872;2023-05-10T02:42:05;6.77;;;3.20;;
4674;SDS011;2351;50.812;12.872;2023-05-10T02:44:37;3.13;;;2.53;;
4674;SDS011;2351;50.812;12.872;2023-05-10T02:47:12;4.07;;;3.07;;
4674;SDS011;2351;50.812;12.872;2023-05-10T02:49:45;4.03;;;3.30;;
4674;SDS011;2351;50.812;12.872;2023-05-10T02:52:19;3.30;;;3.00;;
4674;SDS011;2351;50.812;12.872;2023-05-10T02:54:55;5.60;;;3.93;;
4674;SDS011;2351;50.812;12.872;2023-05-10T02:57:31;6.00;;;3.70;;
4674;SDS011;2351;50.812;12.872;2023-05-10T03:00:05;2.87;;;2.63;;
4674;SDS011;2351;50.812;12.872;2023-05-10T03:02:38;5.83;;;3.70;;
4674;SDS011;2351;50.812;12.872;2023-05-10T03:05:11;5.43;;;3.60;;
4674;SDS011;2351;50.812;12.872;2023-05-10T03:07:43;5.53;;;3.73;;
4674;SDS011;2351;50.812;12.872;2023-05-10T03:10:16;6.50;;;3.23;;
4674;SDS011;2351;50.812;12.872;2023-05-10T03:12:55;4.30;;;3.30;;
4674;SDS011;2351;50.812;12.872;2023-05-10T03:15:37;7.90;;;3.30;;
4674;SDS011;2351;50.812;12.872;2023-05-10T03:18:16;4.90;;;3.27;;
4674;SDS011;2351;50.812;12.872;2023-05-10T03:20:55;6.00;;;3.30;;
4674;SDS011;2351;50.812;12.872;2023-05-10T03:23:33;4.47;;;2.73;;
4674;SDS011;2351;50.812;12.872;2023-05-10T03:26:07;5.60;;;3.53;;
4674;SDS011;2351;50.812;12.872;2023-05-10T03:28:39;9.97;;;3.87;;
4674;SDS011;2351;50.812;12.872;2023-05-10T03:31:12;4.13;;;3.37;;
4674;SDS011;2351;50.812;12.872;2023-05-10T03:33:46;6.00;;;3.90;;
4674;SDS011;2351;50.812;12.872;2023-05-10T03:36:20;7.37;;;3.80;;
4674;SDS011;2351;50.812;12.872;2023-05-10T03:38:52;3.90;;;3.07;;
4674;SDS011;2351;50.812;12.872;2023-05-10T03:41:24;6.50;;;3.87;;
4674;SDS011;2351;50.812;12.872;2023-05-10T03:43:56;4.70;;;2.80;;
4674;SDS011;2351;50.812;12.872;2023-05-10T03:46:27;6.20;;;3.83;;
4674;SDS011;2351;50.812;12.872;2023-05-10T03:48:59;8.30;;;3.37;;
4674;SDS011;2351;50.812;12.872;2023-05-10T03:51:32;5.40;;;3.77;;
4674;SDS011;2351;50.812;12.872;2023-05-10T03:54:04;3.90;;;3.20;;
4674;SDS011;2351;50.812;12.872;2023-05-10T03:56:36;9.17;;;3.00;;
4674;SDS011;2351;50.812;12.872;2023-05-10T03:59:07;19.50;;;3.47;;
4674;SDS011;2351;50.812;12.872;2023-05-10T04:01:39;6.23;;;3.93;;
4674;SDS011;2351;50.812;12.872;2023-05-10T04:04:11;5.33;;;3.50;;
4674;SDS011;2351;50.812;12.872;2023-05-10T04:06:44;6.80;;;3.07;;
4674;SDS011;2351;50.812;12.872;2023-05-10T04:09:16;5.37;;;3.43;;
4674;SDS011;2351;50.812;12.872;2023-05-10T04:11:47;5.27;;;3.50;;
4674;SDS011;2351;50.812;12.872;2023-05-10T04:14:19;8.77;;;4.03;;
4674;SDS011;2351;50.812;12.872;2023-05-10T04:16:51;5.37;;;3.43;;
4674;SDS011;2351;50.812;12.872;2023-05-10T04:19:22;6.67;;;3.37;;
4674;SDS011;2351;50.812;12.872;2023-05-10T04:21:55;4.53;;;3.27;;
4674;SDS011;2351;50.812;12.872;2023-05-10T04:24:27;7.17;;;3.50;;
4674;SDS011;2351;50.812;12.872;2023-05-10T04:26:59;4.50;;;3.40;;
4674;SDS011;2351;50.812;12.872;2023-05-10T04:29:31;8.10;;;3.30;;
4674;SDS011;2351;50.812;12.872;2023-05-10T04:32:02;15.53;;;3.67;;
4674;SDS011;2351;50.812;12.872;2023-05-10T04:34:34;7.97;;;3.70;;
4674;SDS011;2351;50.812;12.872;2023-05-10T04:37:08;9.93;;;3.50;;
4674;SDS011;2351;50.812;12.872;2023-05-10T04:39:39;3.63;;;3.17;;
4674;SDS011;2351;50.812;12.872;2023-05-10T04:42:11;4.83;;;3.03;;
4674;SDS011;2351;50.812;12.872;2023-05-10T04:44:44;5.30;;;2.87;;
4674;SDS011;2351;50.812;12.872;2023-05-10T04:47:16;4.90;;;3.67;;
4674;SDS011;2351;50.812;12.872;2023-05-10T04:49:48;5.00;;;3.43;;
4674;SDS011;2351;50.812;12.872;2023-05-10T04:52:21;5.63;;;3.43;;
4674;SDS011;2351;50.812;12.872;2023-05-10T04:54:53;7.67;;;4.90;;
4674;SDS011;2351;50.812;12.872;2023-05-10T04:57:24;5.97;;;3.60;;
4674;SDS011;2351;50.812;12.872;2023-05-10T04:59:56;4.70;;;2.93;;
4674;SDS011;2351;50.812;12.872;2023-05-10T05:02:28;6.77;;;3.50;;
4674;SDS011;2351;50.812;12.872;2023-05-10T05:05:00;4.37;;;2.83;;
4674;SDS011;2351;50.812;12.872;2023-05-10T05:07:33;7.73;;;3.90;;
4674;SDS011;2351;50.812;12.872;2023-05-10T05:10:06;3.40;;;2.83;;
4674;SDS011;2351;50.812;12.872;2023-05-10T05:12:38;4.00;;;3.03;;
4674;SDS011;2351;50.812;12.872;2023-05-10T05:15:10;10.50;;;2.67;;
4674;SDS011;2351;50.812;12.872;2023-05-10T05:17:42;3.73;;;3.00;;
4674;SDS011;2351;50.812;12.872;2023-05-10T05:20:14;8.63;;;3.33;;
4674;SDS011;2351;50.812;12.872;2023-05-10T05:22:47;4.70;;;3.10;;
4674;SDS011;2351;50.812;12.872;2023-05-10T05:25:19;3.43;;;2.80;;
4674;SDS011;2351;50.812;12.872;2023-05-10T05:27:50;6.20;;;2.93;;
4674;SDS011;2351;50.812;12.872;2023-05-10T05:30:22;5.07;;;3.50;;
4674;SDS011;2351;50.812;12.872;2023-05-10T05:32:54;5.70;;;3.90;;
4674;SDS011;2351;50.812;12.872;2023-05-10T05:35:26;6.13;;;2.67;;
4674;SDS011;2351;50.812;12.872;2023-05-10T05:37:59;4.70;;;3.10;;
4674;SDS011;2351;50.812;12.872;2023-05-10T05:40:31;8.00;;;3.97;;
4674;SDS011;2351;50.812;12.872;2023-05-10T05:43:03;3.00;;;2.67;;
4674;SDS011;2351;50.812;12.872;2023-05-10T05:45:34;2.73;;;2.50;;
4674;SDS011;2351;50.812;12.872;2023-05-10T05:48:06;3.97;;;2.93;;
4674;SDS011;2351;50.812;12.872;2023-05-10T05:50:38;3.20;;;2.90;;
4674;SDS011;2351;50.812;12.872;2023-05-10T05:53:11;3.73;;;2.97;;
4674;SDS011;2351;50.812;12.872;2023-05-10T05:55:50;14.30;;;3.37;;
4674;SDS011;2351;50.812;12.872;2023-05-10T05:58:23;8.53;;;3.47;;
4674;SDS011;2351;50.812;12.872;2023-05-10T06:00:55;4.10;;;2.90;;
4674;SDS011;2351;50.812;12.872;2023-05-10T06:03:26;5.70;;;2.63;;
4674;SDS011;2351;50.812;12.872;2023-05-10T06:05:58;5.73;;;3.13;;
4674;SDS011;2351;50.812;12.872;2023-05-10T06:08:31;3.60;;;3.00;;
4674;SDS011;2351;50.812;12.872;2023-05-10T06:11:04;3.57;;;2.67;;
4674;SDS011;2351;50.812;12.872;2023-05-10T06:13:35;3.07;;;2.70;;
4674;SDS011;2351;50.812;12.872;2023-05-10T06:16:07;7.63;;;2.90;;
4674;SDS011;2351;50.812;12.872;2023-05-10T06:18:39;3.33;;;2.87;;
4674;SDS011;2351;50.812;12.872;2023-05-10T06:21:10;6.33;;;3.43;;
4674;SDS011;2351;50.812;12.872;2023-05-10T06:23:43;3.53;;;3.03;;
4674;SDS011;2351;50.812;12.872;2023-05-10T06:26:15;3.43;;;2.67;;
4674;SDS011;2351;50.812;12.872;2023-05-10T06:28:47;3.60;;;2.30;;
4674;SDS011;2351;50.812;12.872;2023-05-10T06:31:18;5.43;;;3.43;;
4674;SDS011;2351;50.812;12.872;2023-05-10T06:33:50;4.10;;;3.07;;
4674;SDS011;2351;50.812;12.872;2023-05-10T06:36:23;4.67;;;2.53;;
4674;SDS011;2351;50.812;12.872;2023-05-10T06:38:57;3.97;;;2.93;;
4674;SDS011;2351;50.812;12.872;2023-05-10T06:41:29;4.40;;;2.60;;
4674;SDS011;2351;50.812;12.872;2023-05-10T06:44:01;4.77;;;2.97;;
4674;SDS011;2351;50.812;12.872;2023-05-10T06:46:33;3.47;;;2.50;;
4674;SDS011;2351;50.812;12.872;2023-05-10T06:49:05;4.40;;;2.90;;
4674;SDS011;2351;50.812;12.872;2023-05-10T06:51:36;4.03;;;3.07;;
4674;SDS011;2351;50.812;12.872;2023-05-10T06:54:10;4.83;;;3.00;;
4674;SDS011;2351;50.812;12.872;2023-05-10T06:56:41;6.07;;;3.37;;
4674;SDS011;2351;50.812;12.872;2023-05-10T06:59:13;8.03;;;3.63;;
4674;SDS011;2351;50.812;12.872;2023-05-10T07:01:46;3.57;;;3.23;;
4674;SDS011;2351;50.812;12.872;2023-05-10T07:04:18;4.13;;;2.80;;
4674;SDS011;2351;50.812;12.872;2023-05-10T07:06:49;8.00;;;2.87;;
4674;SDS011;2351;50.812;12.872;2023-05-10T07:09:22;4.90;;;3.23;;
4674;SDS011;2351;50.812;12.872;2023-05-10T07:11:55;4.57;;;3.17;;
4674;SDS011;2351;50.812;12.872;2023-05-10T07:14:27;2.83;;;2.53;;
4674;SDS011;2351;50.812;12.872;2023-05-10T07:16:59;7.50;;;3.13;;
4674;SDS011;2351;50.812;12.872;2023-05-10T07:19:31;7.63;;;3.03;;
4674;SDS011;2351;50.812;12.872;2023-05-10T07:22:03;4.03;;;2.70;;
4674;SDS011;2351;50.812;12.872;2023-05-10T07:24:36;3.70;;;2.50;;
4674;SDS011;2351;50.812;12.872;2023-05-10T07:27:08;3.03;;;2.60;;
4674;SDS011;2351;50.812;12.872;2023-05-10T07:29:40;4.10;;;3.20;;
4674;SDS011;2351;50.812;12.872;2023-05-10T07:32:12;4.83;;;3.30;;
4674;SDS011;2351;50.812;12.872;2023-05-10T07:34:44;3.23;;;2.93;;
4674;SDS011;2351;50.812;12.872;2023-05-10T07:37:15;6.63;;;3.67;;
4674;SDS011;2351;50.812;12.872;2023-05-10T07:39:49;3.43;;;3.13;;
4674;SDS011;2351;50.812;12.872;2023-05-10T07:42:20;4.97;;;2.90;;
4674;SDS011;2351;50.812;12.872;2023-05-10T07:44:52;5.80;;;3.00;;
4674;SDS011;2351;50.812;12.872;2023-05-10T07:47:24;3.10;;;2.70;;
4674;SDS011;2351;50.812;12.872;2023-05-10T07:49:56;5.87;;;3.00;;
4674;SDS011;2351;50.812;12.872;2023-05-10T07:52:27;4.67;;;3.40;;
4674;SDS011;2351;50.812;12.872;2023-05-10T07:55:01;5.93;;;3.17;;
4674;SDS011;2351;50.812;12.872;2023-05-10T07:57:32;3.50;;;3.20;;
4674;SDS011;2351;50.812;12.872;2023-05-10T08:00:05;5.20;;;3.50;;
4674;SDS011;2351;50.812;12.872;2023-05-10T08:02:37;5.60;;;3.87;;
4674;SDS011;2351;50.812;12.872;2023-05-10T08:05:09;5.47;;;3.20;;
4674;SDS011;2351;50.812;12.872;2023-05-10T08:07:41;10.30;;;3.30;;
4674;SDS011;2351;50.812;12.872;2023-05-10T08:10:17;7.90;;;3.73;;
4674;SDS011;2351;50.812;12.872;2023-05-10T08:12:49;5.43;;;3.30;;
4674;SDS011;2351;50.812;12.872;2023-05-10T08:15:21;7.00;;;3.50;;
4674;SDS011;2351;50.812;12.872;2023-05-10T08:17:52;4.97;;;3.00;;
4674;SDS011;2351;50.812;12.872;2023-05-10T08:20:24;5.57;;;4.03;;
4674;SDS011;2351;50.812;12.872;2023-05-10T08:22:56;5.30;;;3.50;;
4674;SDS011;2351;50.812;12.872;2023-05-10T08:25:29;9.90;;;3.77;;
4674;SDS011;2351;50.812;12.872;2023-05-10T08:28:01;12.07;;;3.40;;
4674;SDS011;2351;50.812;12.872;2023-05-10T08:30:32;4.60;;;3.00;;
4674;SDS011;2351;50.812;12.872;2023-05-10T08:33:04;3.07;;;2.80;;
4674;SDS011;2351;50.812;12.872;2023-05-10T08:35:36;4.23;;;3.60;;
4674;SDS011;2351;50.812;12.872;2023-05-10T08:38:08;3.67;;;3.17;;
4674;SDS011;2351;50.812;12.872;2023-05-10T08:40:41;5.17;;;2.70;;
4674;SDS011;2351;50.812;12.872;2023-05-10T08:43:14;6.40;;;3.13;;
4674;SDS011;2351;50.812;12.872;2023-05-10T08:45:46;6.63;;;3.30;;
4674;SDS011;2351;50.812;12.872;2023-05-10T08:48:19;5.70;;;3.53;;
4674;SDS011;2351;50.812;12.872;2023-05-10T08:50:54;6.37;;;3.43;;
4674;SDS011;2351;50.812;12.872;2023-05-10T08:53:29;8.93;;;3.67;;
4674;SDS011;2351;50.812;12.872;2023-05-10T08:56:06;5.60;;;3.47;;
4674;SDS011;2351;50.812;12.872;2023-05-10T08:58:38;5.60;;;3.77;;
4674;SDS011;2351;50.812;12.872;2023-05-10T09:01:11;7.13;;;3.50;;
4674;SDS011;2351;50.812;12.872;2023-05-10T09:03:45;5.57;;;3.83;;
4674;SDS011;2351;50.812;12.872;2023-05-10T09:06:17;6.17;;;3.80;;
4674;SDS011;2351;50.812;12.872;2023-05-10T09:08:49;8.23;;;3.70;;
4674;SDS011;2351;50.812;12.872;2023-05-10T09:11:24;10.37;;;4.00;;
4674;SDS011;2351;50.812;12.872;2023-05-10T09:13:59;7.87;;;3.83;;
4674;SDS011;2351;50.812;12.872;2023-05-10T09:16:31;6.20;;;3.80;;
4674;SDS011;2351;50.812;12.872;2023-05-10T09:19:02;4.07;;;3.47;;
4674;SDS011;2351;50.812;12.872;2023-05-10T09:21:35;3.93;;;3.60;;
4674;SDS011;2351;50.812;12.872;2023-05-10T09:24:08;4.87;;;3.73;;
4674;SDS011;2351;50.812;12.872;2023-05-10T09:26:46;5.30;;;3.60;;
4674;SDS011;2351;50.812;12.872;2023-05-10T09:29:19;4.00;;;3.10;;
4674;SDS011;2351;50.812;12.872;2023-05-10T09:31:51;3.83;;;3.43;;
4674;SDS011;2351;50.812;12.872;2023-05-10T09:34:28;7.97;;;5.37;;
4674;SDS011;2351;50.812;12.872;2023-05-10T09:37:04;8.57;;;4.33;;
4674;SDS011;2351;50.812;12.872;2023-05-10T09:39:38;7.13;;;4.10;;
4674;SDS011;2351;50.812;12.872;2023-05-10T09:42:12;7.63;;;5.00;;
4674;SDS011;2351;50.812;12.872;2023-05-10T09:44:49;9.53;;;3.90;;
4674;SDS011;2351;50.812;12.872;2023-05-10T09:47:21;6.13;;;4.40;;
4674;SDS011;2351;50.812;12.872;2023-05-10T09:49:52;5.90;;;4.50;;
4674;SDS011;2351;50.812;12.872;2023-05-10T09:52:26;7.73;;;5.13;;
4674;SDS011;2351;50.812;12.872;2023-05-10T09:54:58;7.20;;;4.27;;
4674;SDS011;2351;50.812;12.872;2023-05-10T09:57:31;6.70;;;4.87;;
4674;SDS011;2351;50.812;12.872;2023-05-10T10:00:03;6.73;;;4.33;;
4674;SDS011;2351;50.812;12.872;2023-05-10T10:02:36;6.40;;;4.43;;
4674;SDS011;2351;50.812;12.872;2023-05-10T10:05:08;7.67;;;5.10;;
4674;SDS011;2351;50.812;12.872;2023-05-10T10:07:40;7.60;;;5.50;;
4674;SDS011;2351;50.812;12.872;2023-05-10T10:10:12;13.40;;;6.87;;
4674;SDS011;2351;50.812;12.872;2023-05-10T10:12:45;7.37;;;5.17;;
4674;SDS011;2351;50.812;12.872;2023-05-10T10:15:17;8.37;;;5.20;;
4674;SDS011;2351;50.812;12.872;2023-05-10T10:17:50;5.73;;;4.83;;
4674;SDS011;2351;50.812;12.872;2023-05-10T10:20:23;8.23;;;4.80;;
4674;SDS011;2351;50.812;12.872;2023-05-10T10:22:55;9.57;;;4.67;;
4674;SDS011;2351;50.812;12.872;2023-05-10T10:25:27;6.63;;;4.50;;
4674;SDS011;2351;50.812;12.872;2023-05-10T10:28:03;7.03;;;5.60;;
4674;SDS011;2351;50.812;12.872;2023-05-10T10:30:47;7.13;;;4.70;;
4674;SDS011;2351;50.812;12.872;2023-05-10T10:33:38;7.47;;;4.47;;
4674;SDS011;2351;50.812;12.872;2023-05-10T10:36:18;8.00;;;4.63;;
4674;SDS011;2351;50.812;12.872;2023-05-10T10:38:59;7.70;;;4.23;;
4674;SDS011;2351;50.812;12.872;2023-05-10T10:41:33;6.60;;;4.80;;
4674;SDS011;2351;50.812;12.872;2023-05-10T10:44:23;5.73;;;4.13;;
4674;SDS011;2351;50.812;12.872;2023-05-10T10:47:06;6.63;;;4.03;;
4674;SDS011;2351;50.812;12.872;2023-05-10T10:50:02;6.03;;;4.23;;
4674;SDS011;2351;50.812;12.872;2023-05-10T10:52:35;8.73;;;3.80;;
4674;SDS011;2351;50.812;12.872;2023-05-10T10:55:08;7.90;;;5.17;;
4674;SDS011;2351;50.812;12.872;2023-05-10T10:57:45;8.13;;;5.13;;
4674;SDS011;2351;50.812;12.872;2023-05-10T11:00:23;5.90;;;4.23;;
4674;SDS011;2351;50.812;12.872;2023-05-10T11:02:58;8.93;;;4.10;;
4674;SDS011;2351;50.812;12.872;2023-05-10T11:08:13;10.10;;;4.23;;
4674;SDS011;2351;50.812;12.872;2023-05-10T11:10:51;7.70;;;4.40;;
4674;SDS011;2351;50.812;12.872;2023-05-10T11:13:27;7.63;;;3.90;;
4674;SDS011;2351;50.812;12.872;2023-05-10T11:16:10;8.93;;;4.77;;
4674;SDS011;2351;50.812;12.872;2023-05-10T11:18:52;7.40;;;4.47;;
4674;SDS011;2351;50.812;12.872;2023-05-10T11:21:33;6.67;;;3.67;;
4674;SDS011;2351;50.812;12.872;2023-05-10T11:24:09;6.43;;;4.47;;
4674;SDS011;2351;50.812;12.872;2023-05-10T11:26:45;6.97;;;4.23;;
4674;SDS011;2351;50.812;12.872;2023-05-10T11:29:16;7.17;;;4.63;;
4674;SDS011;2351;50.812;12.872;2023-05-10T11:31:50;4.23;;;3.83;;
4674;SDS011;2351;50.812;12.872;2023-05-10T11:34:23;6.30;;;4.57;;
4674;SDS011;2351;50.812;12.872;2023-05-10T11:36:55;5.90;;;4.67;;
4674;SDS011;2351;50.812;12.872;2023-05-10T11:39:31;7.40;;;5.33;;
4674;SDS011;2351;50.812;12.872;2023-05-10T11:42:03;6.60;;;4.73;;
4674;SDS011;2351;50.812;12.872;2023-05-10T11:44:35;6.00;;;4.33;;
4674;SDS011;2351;50.812;12.872;2023-05-10T11:47:08;4.83;;;3.60;;
4674;SDS011;2351;50.812;12.872;2023-05-10T11:49:43;7.27;;;4.67;;
4674;SDS011;2351;50.812;12.872;2023-05-10T11:52:14;6.00;;;4.33;;
4674;SDS011;2351;50.812;12.872;2023-05-10T11:54:50;6.37;;;5.17;;
4674;SDS011;2351;50.812;12.872;2023-05-10T11:57:25;6.10;;;4.87;;
4674;SDS011;2351;50.812;12.872;2023-05-10T11:59:58;6.40;;;4.43;;
4674;SDS011;2351;50.812;12.872;2023-05-10T12:02:31;11.30;;;5.83;;
4674;SDS011;2351;50.812;12.872;2023-05-10T12:05:03;7.90;;;4.83;;
4674;SDS011;2351;50.812;12.872;2023-05-10T12:07:36;9.77;;;5.40;;
4674;SDS011;2351;50.812;12.872;2023-05-10T12:10:08;10.33;;;5.43;;
4674;SDS011;2351;50.812;12.872;2023-05-10T12:12:43;6.90;;;4.87;;
4674;SDS011;2351;50.812;12.872;2023-05-10T12:15:17;12.03;;;5.57;;
4674;SDS011;2351;50.812;12.872;2023-05-10T12:17:51;7.93;;;5.07;;
4674;SDS011;2351;50.812;12.872;2023-05-10T12:20:23;12.10;;;5.10;;
4674;SDS011;2351;50.812;12.872;2023-05-10T12:22:58;7.03;;;5.83;;
4674;SDS011;2351;50.812;12.872;2023-05-10T12:25:32;8.33;;;5.60;;
4674;SDS011;2351;50.812;12.872;2023-05-10T12:28:05;8.67;;;5.57;;
4674;SDS011;2351;50.812;12.872;2023-05-10T12:30:38;9.50;;;6.13;;
4674;SDS011;2351;50.812;12.872;2023-05-10T12:33:12;8.70;;;6.47;;
4674;SDS011;2351;50.812;12.872;2023-05-10T12:35:47;9.70;;;5.60;;
4674;SDS011;2351;50.812;12.872;2023-05-10T12:38:24;8.70;;;6.00;;
4674;SDS011;2351;50.812;12.872;2023-05-10T12:41:00;8.00;;;5.80;;
4674;SDS011;2351;50.812;12.872;2023-05-10T12:43:32;12.33;;;5.70;;
4674;SDS011;2351;50.812;12.872;2023-05-10T12:46:05;8.23;;;5.30;;
4674;SDS011;2351;50.812;12.872;2023-05-10T12:48:39;9.80;;;5.53;;
4674;SDS011;2351;50.812;12.872;2023-05-10T12:54:36;7.17;;;5.70;;
4674;SDS011;2351;50.812;12.872;2023-05-10T12:57:08;8.47;;;5.50;;
4674;SDS011;2351;50.812;12.872;2023-05-10T12:59:40;5.90;;;5.30;;
4674;SDS011;2351;50.812;12.872;2023-05-10T13:02:12;8.80;;;5.73;;
4674;SDS011;2351;50.812;12.872;2023-05-10T13:04:46;9.70;;;5.97;;
4674;SDS011;2351;50.812;12.872;2023-05-10T13:07:17;9.33;;;5.80;;
4674;SDS011;2351;50.812;12.872;2023-05-10T13:09:49;18.67;;;5.40;;
4674;SDS011;2351;50.812;12.872;2023-05-10T13:12:21;9.20;;;5.47;;
4674;SDS011;2351;50.812;12.872;2023-05-10T13:14:52;9.03;;;6.50;;
4674;SDS011;2351;50.812;12.872;2023-05-10T13:17:25;10.10;;;6.43;;
4674;SDS011;2351;50.812;12.872;2023-05-10T13:19:58;7.80;;;5.67;;
4674;SDS011;2351;50.812;12.872;2023-05-10T13:22:30;9.00;;;6.00;;
4674;SDS011;2351;50.812;12.872;2023-05-10T13:25:01;8.57;;;5.50;;
4674;SDS011;2351;50.812;12.872;2023-05-10T13:27:33;9.70;;;5.77;;
4674;SDS011;2351;50.812;12.872;2023-05-10T13:30:05;9.07;;;6.17;;
4674;SDS011;2351;50.812;12.872;2023-05-10T13:32:38;9.20;;;6.00;;
4674;SDS011;2351;50.812;12.872;2023-05-10T13:35:11;7.27;;;5.70;;
4674;SDS011;2351;50.812;12.872;2023-05-10T13:37:43;12.03;;;5.57;;
4674;SDS011;2351;50.812;12.872;2023-05-10T13:40:14;7.50;;;5.57;;
4674;SDS011;2351;50.812;12.872;2023-05-10T13:42:46;6.80;;;5.03;;
4674;SDS011;2351;50.812;12.872;2023-05-10T13:45:18;8.23;;;5.47;;
4674;SDS011;2351;50.812;12.872;2023-05-10T13:47:50;7.77;;;5.53;;
4674;SDS011;2351;50.812;12.872;2023-05-10T13:50:23;7.30;;;5.30;;
4674;SDS011;2351;50.812;12.872;2023-05-10T13:52:55;8.43;;;4.90;;
4674;SDS011;2351;50.812;12.872;2023-05-10T13:55:27;7.40;;;5.40;;
4674;SDS011;2351;50.812;12.872;2023-05-10T13:57:59;8.30;;;5.80;;
4674;SDS011;2351;50.812;12.872;2023-05-10T14:00:30;7.73;;;5.60;;
4674;SDS011;2351;50.812;12.872;2023-05-10T14:03:02;5.03;;;4.33;;
4674;SDS011;2351;50.812;12.872;2023-05-10T14:05:36;7.40;;;4.73;;
4674;SDS011;2351;50.812;12.872;2023-05-10T14:08:07;8.37;;;5.13;;
4674;SDS011;2351;50.812;12.872;2023-05-10T14:10:40;7.23;;;5.43;;
4674;SDS011;2351;50.812;12.872;2023-05-10T14:13:12;9.00;;;6.20;;
4674;SDS011;2351;50.812;12.872;2023-05-10T14:15:44;8.53;;;6.17;;
4674;SDS011;2351;50.812;12.872;2023-05-10T14:18:16;14.10;;;5.67;;
4674;SDS011;2351;50.812;12.872;2023-05-10T14:20:49;7.17;;;5.10;;
4674;SDS011;2351;50.812;12.872;2023-05-10T14:23:21;8.20;;;5.60;;
4674;SDS011;2351;50.812;12.872;2023-05-10T14:25:54;5.37;;;4.00;;
4674;SDS011;2351;50.812;12.872;2023-05-10T14:28:26;7.63;;;3.93;;
4674;SDS011;2351;50.812;12.872;2023-05-10T14:30:58;4.87;;;3.90;;
4674;SDS011;2351;50.812;12.872;2023-05-10T14:33:30;4.57;;;4.17;;
4674;SDS011;2351;50.812;12.872;2023-05-10T14:36:03;6.23;;;4.90;;
4674;SDS011;2351;50.812;12.872;2023-05-10T14:38:35;7.60;;;4.40;;
4674;SDS011;2351;50.812;12.872;2023-05-10T14:41:06;6.70;;;4.10;;
4674;SDS011;2351;50.812;12.872;2023-05-10T14:43:38;9.37;;;5.03;;
4674;SDS011;2351;50.812;12.872;2023-05-10T14:46:10;6.87;;;4.10;;
4674;SDS011;2351;50.812;12.872;2023-05-10T14:48:41;5.90;;;4.00;;
4674;SDS011;2351;50.812;12.872;2023-05-10T14:51:15;8.20;;;5.30;;
4674;SDS011;2351;50.812;12.872;2023-05-10T14:53:46;4.43;;;3.80;;
4674;SDS011;2351;50.812;12.872;2023-05-10T14:56:18;5.20;;;3.33;;
4674;SDS011;2351;50.812;12.872;2023-05-10T14:58:50;5.00;;;3.90;;
4674;SDS011;2351;50.812;12.872;2023-05-10T15:01:22;4.57;;;4.13;;
4674;SDS011;2351;50.812;12.872;2023-05-10T15:03:54;5.30;;;4.57;;
4674;SDS011;2351;50.812;12.872;2023-05-10T15:06:31;5.70;;;4.20;;
4674;SDS011;2351;50.812;12.872;2023-05-10T15:09:04;6.70;;;4.63;;
4674;SDS011;2351;50.812;12.872;2023-05-10T15:11:36;10.23;;;5.77;;
4674;SDS011;2351;50.812;12.872;2023-05-10T15:14:07;8.60;;;5.97;;
4674;SDS011;2351;50.812;12.872;2023-05-10T15:16:39;7.50;;;4.77;;
4674;SDS011;2351;50.812;12.872;2023-05-10T15:19:11;5.73;;;4.30;;
4674;SDS011;2351;50.812;12.872;2023-05-10T15:21:44;4.70;;;3.50;;
4674;SDS011;2351;50.812;12.872;2023-05-10T15:24:17;12.10;;;4.47;;
4674;SDS011;2351;50.812;12.872;2023-05-10T15:26:49;8.07;;;4.27;;
4674;SDS011;2351;50.812;12.872;2023-05-10T15:29:20;8.37;;;3.53;;
4674;SDS011;2351;50.812;12.872;2023-05-10T15:31:52;5.07;;;4.20;;
4674;SDS011;2351;50.812;12.872;2023-05-10T15:34:24;5.77;;;4.17;;
4674;SDS011;2351;50.812;12.872;2023-05-10T15:36:57;5.30;;;4.33;;
4674;SDS011;2351;50.812;12.872;2023-05-10T15:39:29;10.00;;;5.70;;
4674;SDS011;2351;50.812;12.872;2023-05-10T15:42:00;6.77;;;4.97;;
4674;SDS011;2351;50.812;12.872;2023-05-10T15:44:33;16.07;;;5.40;;
4674;SDS011;2351;50.812;12.872;2023-05-10T15:47:05;7.27;;;4.80;;
4674;SDS011;2351;50.812;12.872;2023-05-10T15:49:36;6.00;;;3.80;;
4674;SDS011;2351;50.812;12.872;2023-05-10T15:52:09;3.43;;;3.10;;